METAR Data
IDs: Format: Raw Decoded Include TAF

Data at: 1923 UTC 26 Sep 2021

METAR for:KLUX (Laurens Cnty, SC, US)
Text:KLUX 261915Z AUTO 23005KT 10SM SCT050 26/11 A3009 RMK AO2
Temperature: 26.0°C ( 79°F)
Dewpoint: 11.0°C ( 52°F) [RH = 39%]
Pressure (altimeter):30.09 inches Hg (1019.0 mb)
Winds:from the SW (230 degrees) at 6 MPH (5 knots; 2.6 m/s)
Visibility:10 or more sm (16+ km)
Ceiling:at least 12,000 feet AGL
Clouds: scattered clouds at 5000 feet AGL
QC Flag:automated observation with no human augmentation

TAF for:KLUX (Laurens Cnty, SC, US)
Text:No data found